^^
Station Historical Data
Daily Summary for February 24, 2017 Units:  English    Metric   Both
« Previous Day
Next Day »
Daily Weekly Monthly Yearly Custom
  High: Low: Average:
Temperature: 70.3 °F 52.8 °F 60.2 °F
Dew Point: 56.8 °F 49.0 °F 53.6 °F
Humidity: 95% 61% 80%
Wind Speed: 8.0mph 0.0mph 2.8mph
Wind Gust: 16.0mph - -
Wind- - South
Pressure: 29.97 in 29.86 in -
Precipitation: 0.00 in    
Historical Graphs
 
 
Tabular Data for February 24, 2017
Time Temperature Dew Point Pressure Wind Wind Speed Wind Gust Humidity Rainfall Rate (Hourly) Conditions
00:00 58.6 °F 52.8 °F 29.92 in South 1.0 mph 4.0 mph 81% 0.00 in FEW
00:15 58.2 °F 52.4 °F 29.92 in SSE 1.0 mph 6.0 mph 81% 0.00 in FEW
00:30 57.2 °F 51.4 °F 29.92 in SSE 1.0 mph 5.0 mph 81% 0.00 in FEW
00:45 56.2 °F 50.8 °F 29.92 in Calm   1.0 mph 82% 0.00 in FEW
01:00 55.6 °F 50.8 °F 29.92 in Calm   1.0 mph 84% 0.00 in FEW
01:15 55.1 °F 50.4 °F 29.92 in Calm   2.0 mph 84% 0.00 in BKN
01:30 55.8 °F 51.4 °F 29.92 in Calm   2.0 mph 85% 0.00 in BKN
01:45 55.8 °F 51.4 °F 29.92 in Calm   3.0 mph 85% 0.00 in BKN
02:00 56.2 °F 51.4 °F 29.92 in South 1.0 mph 4.0 mph 84% 0.00 in BKN
02:15 55.3 °F 50.5 °F 29.92 in Calm   6.0 mph 84% 0.00 in BKN
02:30 54.3 °F 49.9 °F 29.92 in SSE 1.0 mph 3.0 mph 85% 0.00 in BKN
02:45 53.7 °F 49.6 °F 29.92 in SSE 1.0 mph 6.0 mph 86% 0.00 in BKN
03:00 53.0 °F 49.0 °F 29.92 in SSE 1.0 mph 6.0 mph 86% 0.00 in BKN
03:15 52.8 °F 49.0 °F 29.93 in SSE 2.0 mph 6.0 mph 87% 0.00 in CLR
03:30 53.1 °F 49.3 °F 29.93 in SSE 1.0 mph 6.0 mph 87% 0.00 in CLR
03:45 53.0 °F 49.2 °F 29.93 in SSE 1.0 mph 7.0 mph 87% 0.00 in CLR
04:00 53.1 °F 49.7 °F 29.93 in SSE 2.0 mph 6.0 mph 88% 0.00 in CLR
04:15 54.0 °F 50.5 °F 29.93 in SE 1.0 mph 6.0 mph 88% 0.00 in CLR
04:30 54.5 °F 51.0 °F 29.94 in SSE 1.0 mph 6.0 mph 88% 0.00 in CLR
04:45 54.8 °F 51.0 °F 29.94 in South 2.0 mph 8.0 mph 87% 0.00 in CLR
05:00 54.9 °F 51.4 °F 29.94 in South 3.0 mph 7.0 mph 88% 0.00 in CLR
05:15 55.0 °F 51.5 °F 29.94 in South 2.0 mph 7.0 mph 88% 0.00 in CLR
05:30 54.8 °F 51.0 °F 29.94 in South 2.0 mph 6.0 mph 87% 0.00 in CLR
05:45 54.5 °F 51.0 °F 29.94 in South 1.0 mph 4.0 mph 88% 0.00 in CLR
06:00 54.4 °F 51.2 °F 29.94 in South 2.0 mph 8.0 mph 89% 0.00 in CLR
06:15 54.3 °F 51.2 °F 29.93 in South 2.0 mph 9.0 mph 89% 0.00 in CLR
06:30 54.3 °F 51.1 °F 29.94 in SSW 3.0 mph 7.0 mph 89% 0.00 in CLR
06:45 54.0 °F 50.8 °F 29.94 in South 2.0 mph 7.0 mph 89% 0.00 in CLR
07:00 53.5 °F 50.6 °F 29.95 in SSE 1.0 mph 8.0 mph 90% 0.00 in CLR
07:15 53.0 °F 50.1 °F 29.94 in SSE 1.0 mph 4.0 mph 90% 0.00 in CLR
07:45 53.1 °F 50.2 °F 29.95 in SSE 1.0 mph 5.0 mph 90% 0.00 in CLR
08:00 53.5 °F 50.6 °F 29.96 in Calm   4.0 mph 90% 0.00 in CLR
08:15 54.1 °F 50.9 °F 29.97 in South 1.0 mph 3.0 mph 89% 0.00 in CLR
08:30 54.3 °F 51.1 °F 29.97 in SSW 1.0 mph 5.0 mph 89% 0.00 in CLR
08:45 55.3 °F 51.8 °F 29.97 in South 1.0 mph 6.0 mph 88% 0.00 in CLR
09:00 57.5 °F 53.0 °F 29.97 in Calm   7.0 mph 85% 0.00 in CLR
09:15 59.0 °F 53.1 °F 29.97 in SSW 3.0 mph 9.0 mph 81% 0.00 in CLR
09:30 60.0 °F 53.8 °F 29.97 in SW 2.0 mph 8.0 mph 80% 0.00 in CLR
09:45 61.5 °F 54.6 °F 29.97 in SSW 2.0 mph 8.0 mph 78% 0.00 in CLR
10:00 62.3 °F 54.6 °F 29.96 in South 6.0 mph 9.0 mph 76% 0.00 in CLR
10:15 63.3 °F 55.2 °F 29.96 in SSW 3.0 mph 10.0 mph 75% 0.00 in CLR
10:30 64.0 °F 55.2 °F 29.96 in SSW 6.0 mph 10.0 mph 73% 0.00 in CLR
10:45 65.3 °F 55.3 °F 29.95 in SSW 7.0 mph 14.0 mph 70% 0.00 in CLR
11:00 66.1 °F 55.6 °F 29.95 in SW 3.0 mph 13.0 mph 69% 0.00 in CLR
11:15 66.8 °F 55.9 °F 29.94 in SSE 6.0 mph 15.0 mph 68% 0.00 in CLR
11:30 67.5 °F 55.8 °F 29.94 in South 6.0 mph 12.0 mph 66% 0.00 in CLR
11:45 68.1 °F 55.9 °F 29.94 in SSW 8.0 mph 14.0 mph 65% 0.00 in CLR
12:00 68.8 °F 56.1 °F 29.93 in South 6.0 mph 15.0 mph 64% 0.00 in CLR
12:15 69.7 °F 56.1 °F 29.92 in South 5.0 mph 15.0 mph 62% 0.00 in FEW
12:30 69.7 °F 56.6 °F 29.91 in SSW 2.0 mph 13.0 mph 63% 0.00 in FEW
12:45 70.3 °F 56.7 °F 29.91 in SSE 5.0 mph 12.0 mph 62% 0.00 in FEW
13:00 70.1 °F 56.0 °F 29.90 in SSW 7.0 mph 12.0 mph 61% 0.00 in FEW
13:15 70.2 °F 56.6 °F 29.89 in SSW 7.0 mph 15.0 mph 62% 0.00 in FEW
13:30 69.8 °F 56.6 °F 29.89 in SW 7.0 mph 14.0 mph 63% 0.00 in FEW
13:45 70.1 °F 56.5 °F 29.88 in SSW 3.0 mph 14.0 mph 62% 0.00 in FEW
14:00 69.9 °F 56.7 °F 29.88 in South 5.0 mph 13.0 mph 63% 0.00 in FEW
14:15 70.0 °F 56.8 °F 29.88 in South 5.0 mph 14.0 mph 63% 0.00 in FEW
14:30 69.9 °F 56.7 °F 29.87 in SSW 5.0 mph 9.0 mph 63% 0.00 in FEW
14:45 69.6 °F 56.4 °F 29.87 in SSW 5.0 mph 13.0 mph 63% 0.00 in FEW
15:00 68.8 °F 56.1 °F 29.87 in SSE 3.0 mph 13.0 mph 64% 0.00 in FEW
15:15 68.8 °F 55.7 °F 29.87 in South 2.0 mph 13.0 mph 63% 0.00 in FEW
15:30 68.7 °F 55.6 °F 29.87 in SW 3.0 mph 10.0 mph 63% 0.00 in FEW
15:45 69.0 °F 55.4 °F 29.87 in SSW 2.0 mph 12.0 mph 62% 0.00 in FEW
16:00 68.6 °F 55.5 °F 29.87 in South 5.0 mph 16.0 mph 63% 0.00 in FEW
16:15 67.1 °F 55.3 °F 29.87 in SSW 3.0 mph 12.0 mph 66% 0.00 in FEW
16:30 66.8 °F 55.5 °F 29.86 in South 5.0 mph 14.0 mph 67% 0.00 in FEW
16:45 66.3 °F 55.4 °F 29.86 in SW 5.0 mph 16.0 mph 68% 0.00 in FEW
17:00 65.0 °F 54.6 °F 29.87 in South 5.0 mph 12.0 mph 69% 0.00 in FEW
17:15 63.6 °F 54.0 °F 29.87 in South 6.0 mph 15.0 mph 71% 0.00 in FEW
17:30 62.9 °F 53.7 °F 29.86 in South 7.0 mph 16.0 mph 72% 0.00 in FEW
17:45 62.4 °F 54.0 °F 29.86 in South 3.0 mph 12.0 mph 74% 0.00 in FEW
18:00 61.9 °F 54.2 °F 29.86 in South 3.0 mph 12.0 mph 76% 0.00 in FEW
18:15 61.4 °F 54.8 °F 29.86 in South 2.0 mph 12.0 mph 79% 0.00 in FEW
18:30 60.9 °F 55.0 °F 29.86 in South 5.0 mph 12.0 mph 81% 0.00 in FEW
18:45 60.5 °F 54.6 °F 29.86 in South 5.0 mph 12.0 mph 81% 0.00 in FEW
19:00 60.2 °F 54.4 °F 29.86 in South 2.0 mph 12.0 mph 81% 0.00 in FEW
19:15 59.8 °F 54.0 °F 29.86 in SSW 3.0 mph 10.0 mph 81% 0.00 in CLR
19:30 59.6 °F 54.1 °F 29.86 in South 6.0 mph 12.0 mph 82% 0.00 in CLR
19:45 59.7 °F 54.5 °F 29.87 in South 3.0 mph 12.0 mph 83% 0.00 in CLR
20:00 59.8 °F 54.9 °F 29.87 in SSE 2.0 mph 13.0 mph 84% 0.00 in CLR
20:15 59.7 °F 54.9 °F 29.87 in South 2.0 mph 12.0 mph 84% 0.00 in CLR
20:30 59.5 °F 55.0 °F 29.87 in South 2.0 mph 12.0 mph 85% 0.00 in CLR
20:45 58.7 °F 54.5 °F 29.87 in South 2.0 mph 7.0 mph 86% 0.00 in CLR
21:00 58.0 °F 54.5 °F 29.87 in SSW 2.0 mph 9.0 mph 88% 0.00 in CLR
21:15 57.4 °F 54.5 °F 29.87 in SSW 2.0 mph 10.0 mph 90% 0.00 in FEW
21:30 57.0 °F 54.4 °F 29.87 in South 1.0 mph 12.0 mph 91% 0.00 in FEW
21:45 57.0 °F 55.0 °F 29.87 in SSW 1.0 mph 9.0 mph 93% 0.00 in FEW
22:00 57.0 °F 55.0 °F 29.86 in SSE 2.0 mph 8.0 mph 93% 0.00 in FEW
22:15 56.7 °F 54.7 °F 29.87 in Calm   7.0 mph 93% 0.00 in CLR
22:30 56.6 °F 54.9 °F 29.87 in South 1.0 mph 7.0 mph 94% 0.00 in CLR
22:45 56.7 °F 55.0 °F 29.87 in South 2.0 mph 8.0 mph 94% 0.00 in CLR
23:00 57.4 °F 56.0 °F 29.87 in South 2.0 mph 7.0 mph 95% 0.00 in CLR
23:15 58.2 °F 56.5 °F 29.87 in South 6.0 mph 12.0 mph 94% 0.00 in CLR
23:30 58.7 °F 56.7 °F 29.86 in SSW 3.0 mph 9.0 mph 93% 0.00 in CLR
23:45 58.9 °F 56.6 °F 29.86 in South 2.0 mph 9.0 mph 92% 0.00 in CLR
TarryTown NY Weather
Compliments of Weather Underground - 1.5 mb